sensor_id;sensor_type;location;lat;lon;timestamp;temperature;humidity
54006;DHT22;39919;38.160;-122.260;2022-11-20T00:00:56;17.60;30.20
54006;DHT22;39919;38.160;-122.260;2022-11-20T00:03:25;17.60;30.50
54006;DHT22;39919;38.160;-122.260;2022-11-20T00:05:53;17.50;30.50
54006;DHT22;39919;38.160;-122.260;2022-11-20T00:08:21;17.50;30.30
54006;DHT22;39919;38.160;-122.260;2022-11-20T00:10:49;17.40;30.40
54006;DHT22;39919;38.160;-122.260;2022-11-20T00:13:20;17.40;30.80
54006;DHT22;39919;38.160;-122.260;2022-11-20T00:15:48;17.30;30.90
54006;DHT22;39919;38.160;-122.260;2022-11-20T00:18:17;17.30;31.10
54006;DHT22;39919;38.160;-122.260;2022-11-20T00:20:45;17.20;31.20
54006;DHT22;39919;38.160;-122.260;2022-11-20T00:23:13;17.20;30.80
54006;DHT22;39919;38.160;-122.260;2022-11-20T00:25:42;17.10;32.10
54006;DHT22;39919;38.160;-122.260;2022-11-20T00:28:10;17.00;31.20
54006;DHT22;39919;38.160;-122.260;2022-11-20T00:30:42;16.90;31.80
54006;DHT22;39919;38.160;-122.260;2022-11-20T00:33:10;16.90;35.60
54006;DHT22;39919;38.160;-122.260;2022-11-20T00:35:42;16.80;31.90
54006;DHT22;39919;38.160;-122.260;2022-11-20T00:38:10;16.80;35.60
54006;DHT22;39919;38.160;-122.260;2022-11-20T00:40:38;16.60;31.90
54006;DHT22;39919;38.160;-122.260;2022-11-20T00:43:07;16.60;37.10
54006;DHT22;39919;38.160;-122.260;2022-11-20T00:45:35;16.50;34.50
54006;DHT22;39919;38.160;-122.260;2022-11-20T00:48:08;16.50;39.00
54006;DHT22;39919;38.160;-122.260;2022-11-20T00:50:36;16.40;33.10
54006;DHT22;39919;38.160;-122.260;2022-11-20T00:53:05;16.30;40.40
54006;DHT22;39919;38.160;-122.260;2022-11-20T00:55:33;16.30;40.00
54006;DHT22;39919;38.160;-122.260;2022-11-20T00:58:01;16.20;43.00
54006;DHT22;39919;38.160;-122.260;2022-11-20T01:00:30;16.10;41.90
54006;DHT22;39919;38.160;-122.260;2022-11-20T01:02:59;16.10;43.90
54006;DHT22;39919;38.160;-122.260;2022-11-20T01:05:33;16.00;34.00
54006;DHT22;39919;38.160;-122.260;2022-11-20T01:08:01;15.90;34.30
54006;DHT22;39919;38.160;-122.260;2022-11-20T01:10:31;15.80;34.30
54006;DHT22;39919;38.160;-122.260;2022-11-20T01:12:59;15.70;34.30
54006;DHT22;39919;38.160;-122.260;2022-11-20T01:15:41;15.70;34.60
54006;DHT22;39919;38.160;-122.260;2022-11-20T01:18:09;15.60;34.60
54006;DHT22;39919;38.160;-122.260;2022-11-20T01:20:40;15.50;34.80
54006;DHT22;39919;38.160;-122.260;2022-11-20T01:23:09;15.50;34.70
54006;DHT22;39919;38.160;-122.260;2022-11-20T01:25:37;15.40;34.80
54006;DHT22;39919;38.160;-122.260;2022-11-20T01:28:07;15.40;35.20
54006;DHT22;39919;38.160;-122.260;2022-11-20T01:30:36;15.30;35.30
54006;DHT22;39919;38.160;-122.260;2022-11-20T01:33:04;15.30;35.40
54006;DHT22;39919;38.160;-122.260;2022-11-20T01:35:32;15.30;35.50
54006;DHT22;39919;38.160;-122.260;2022-11-20T01:38:03;15.20;35.60
54006;DHT22;39919;38.160;-122.260;2022-11-20T01:40:31;15.20;36.00
54006;DHT22;39919;38.160;-122.260;2022-11-20T01:43:01;15.10;35.80
54006;DHT22;39919;38.160;-122.260;2022-11-20T01:45:58;15.00;36.10
54006;DHT22;39919;38.160;-122.260;2022-11-20T01:48:28;15.00;36.30
54006;DHT22;39919;38.160;-122.260;2022-11-20T01:50:57;15.00;36.40
54006;DHT22;39919;38.160;-122.260;2022-11-20T01:53:30;14.90;36.30
54006;DHT22;39919;38.160;-122.260;2022-11-20T01:56:00;14.80;36.60
54006;DHT22;39919;38.160;-122.260;2022-11-20T01:58:30;14.80;36.50
54006;DHT22;39919;38.160;-122.260;2022-11-20T02:00:59;14.80;36.60
54006;DHT22;39919;38.160;-122.260;2022-11-20T02:03:28;14.70;36.60
54006;DHT22;39919;38.160;-122.260;2022-11-20T02:05:59;14.70;36.80
54006;DHT22;39919;38.160;-122.260;2022-11-20T02:08:33;14.60;36.80
54006;DHT22;39919;38.160;-122.260;2022-11-20T02:11:03;14.60;36.70
54006;DHT22;39919;38.160;-122.260;2022-11-20T02:13:31;14.60;37.00
54006;DHT22;39919;38.160;-122.260;2022-11-20T02:16:10;14.60;47.60
54006;DHT22;39919;38.160;-122.260;2022-11-20T02:18:40;14.50;37.20
54006;DHT22;39919;38.160;-122.260;2022-11-20T02:55:50;14.20;36.10
54006;DHT22;39919;38.160;-122.260;2022-11-20T02:58:18;14.10;37.00
54006;DHT22;39919;38.160;-122.260;2022-11-20T03:00:47;14.00;37.10
54006;DHT22;39919;38.160;-122.260;2022-11-20T03:03:15;14.00;37.10
54006;DHT22;39919;38.160;-122.260;2022-11-20T03:05:44;13.90;37.00
54006;DHT22;39919;38.160;-122.260;2022-11-20T03:08:12;13.90;37.30
54006;DHT22;39919;38.160;-122.260;2022-11-20T03:10:41;13.80;37.30
54006;DHT22;39919;38.160;-122.260;2022-11-20T03:13:15;13.80;37.30
54006;DHT22;39919;38.160;-122.260;2022-11-20T03:15:43;13.80;37.20
54006;DHT22;39919;38.160;-122.260;2022-11-20T03:18:12;13.70;37.50
54006;DHT22;39919;38.160;-122.260;2022-11-20T03:20:41;13.70;37.40
54006;DHT22;39919;38.160;-122.260;2022-11-20T03:23:12;13.60;37.60
54006;DHT22;39919;38.160;-122.260;2022-11-20T03:25:41;13.70;37.60
54006;DHT22;39919;38.160;-122.260;2022-11-20T03:28:09;13.60;37.60
54006;DHT22;39919;38.160;-122.260;2022-11-20T03:30:40;13.60;37.80
54006;DHT22;39919;38.160;-122.260;2022-11-20T03:33:09;13.50;37.80
54006;DHT22;39919;38.160;-122.260;2022-11-20T03:35:37;13.50;38.00
54006;DHT22;39919;38.160;-122.260;2022-11-20T03:38:06;13.40;38.10
54006;DHT22;39919;38.160;-122.260;2022-11-20T03:40:34;13.40;38.40
54006;DHT22;39919;38.160;-122.260;2022-11-20T03:43:04;13.40;38.90
54006;DHT22;39919;38.160;-122.260;2022-11-20T03:45:32;13.30;38.50
54006;DHT22;39919;38.160;-122.260;2022-11-20T03:48:03;13.30;38.40
54006;DHT22;39919;38.160;-122.260;2022-11-20T03:50:32;13.20;38.50
54006;DHT22;39919;38.160;-122.260;2022-11-20T03:53:00;13.20;38.90
54006;DHT22;39919;38.160;-122.260;2022-11-20T03:55:28;13.10;39.40
54006;DHT22;39919;38.160;-122.260;2022-11-20T03:57:57;13.00;39.90
54006;DHT22;39919;38.160;-122.260;2022-11-20T04:00:25;13.00;40.00
54006;DHT22;39919;38.160;-122.260;2022-11-20T04:02:57;12.90;40.40
54006;DHT22;39919;38.160;-122.260;2022-11-20T04:05:29;12.80;40.30
54006;DHT22;39919;38.160;-122.260;2022-11-20T04:07:57;12.70;40.80
54006;DHT22;39919;38.160;-122.260;2022-11-20T04:10:28;12.70;40.50
54006;DHT22;39919;38.160;-122.260;2022-11-20T04:13:01;12.60;41.20
54006;DHT22;39919;38.160;-122.260;2022-11-20T04:15:29;12.50;41.30
54006;DHT22;39919;38.160;-122.260;2022-11-20T04:17:58;12.40;41.20
54006;DHT22;39919;38.160;-122.260;2022-11-20T04:20:28;12.30;41.70
54006;DHT22;39919;38.160;-122.260;2022-11-20T04:22:56;12.20;41.60
54006;DHT22;39919;38.160;-122.260;2022-11-20T04:25:25;12.10;41.90
54006;DHT22;39919;38.160;-122.260;2022-11-20T04:27:53;12.10;43.10
54006;DHT22;39919;38.160;-122.260;2022-11-20T04:30:21;12.00;42.20
54006;DHT22;39919;38.160;-122.260;2022-11-20T04:32:49;11.90;42.10
54006;DHT22;39919;38.160;-122.260;2022-11-20T04:35:18;11.80;40.70
54006;DHT22;39919;38.160;-122.260;2022-11-20T04:37:49;11.80;41.30
54006;DHT22;39919;38.160;-122.260;2022-11-20T04:40:19;11.80;41.30
54006;DHT22;39919;38.160;-122.260;2022-11-20T04:42:47;11.70;40.90
54006;DHT22;39919;38.160;-122.260;2022-11-20T04:45:16;11.70;40.30
54006;DHT22;39919;38.160;-122.260;2022-11-20T04:47:46;11.70;40.50
54006;DHT22;39919;38.160;-122.260;2022-11-20T04:50:14;11.80;40.10
54006;DHT22;39919;38.160;-122.260;2022-11-20T04:52:42;11.80;40.30
54006;DHT22;39919;38.160;-122.260;2022-11-20T04:55:13;11.90;39.80
54006;DHT22;39919;38.160;-122.260;2022-11-20T04:57:41;12.00;39.70
54006;DHT22;39919;38.160;-122.260;2022-11-20T05:00:09;12.00;39.60
54006;DHT22;39919;38.160;-122.260;2022-11-20T05:02:38;12.10;40.00
54006;DHT22;39919;38.160;-122.260;2022-11-20T05:05:06;12.20;39.60
54006;DHT22;39919;38.160;-122.260;2022-11-20T05:07:35;12.20;39.60
54006;DHT22;39919;38.160;-122.260;2022-11-20T05:10:03;12.30;39.30
54006;DHT22;39919;38.160;-122.260;2022-11-20T05:12:34;12.30;39.30
54006;DHT22;39919;38.160;-122.260;2022-11-20T05:15:03;12.40;39.30
54006;DHT22;39919;38.160;-122.260;2022-11-20T05:17:31;12.30;39.20
54006;DHT22;39919;38.160;-122.260;2022-11-20T05:19:59;12.40;39.30
54006;DHT22;39919;38.160;-122.260;2022-11-20T05:22:28;12.40;39.20
54006;DHT22;39919;38.160;-122.260;2022-11-20T05:24:57;12.40;39.10
54006;DHT22;39919;38.160;-122.260;2022-11-20T05:27:26;12.40;39.20
54006;DHT22;39919;38.160;-122.260;2022-11-20T05:29:55;12.40;39.20
54006;DHT22;39919;38.160;-122.260;2022-11-20T05:32:24;12.40;39.20
54006;DHT22;39919;38.160;-122.260;2022-11-20T05:34:52;12.40;39.30
54006;DHT22;39919;38.160;-122.260;2022-11-20T05:37:20;12.40;40.20
54006;DHT22;39919;38.160;-122.260;2022-11-20T05:39:48;12.40;40.50
54006;DHT22;39919;38.160;-122.260;2022-11-20T05:42:17;12.30;41.00
54006;DHT22;39919;38.160;-122.260;2022-11-20T05:44:59;12.20;41.10
54006;DHT22;39919;38.160;-122.260;2022-11-20T05:47:30;12.20;41.40
54006;DHT22;39919;38.160;-122.260;2022-11-20T05:49:59;12.10;41.50
54006;DHT22;39919;38.160;-122.260;2022-11-20T05:52:28;12.00;42.00
54006;DHT22;39919;38.160;-122.260;2022-11-20T05:54:56;11.90;42.10
54006;DHT22;39919;38.160;-122.260;2022-11-20T05:57:24;11.80;42.70
54006;DHT22;39919;38.160;-122.260;2022-11-20T05:59:52;11.70;43.00
54006;DHT22;39919;38.160;-122.260;2022-11-20T06:02:23;11.60;42.80
54006;DHT22;39919;38.160;-122.260;2022-11-20T06:04:51;11.50;43.30
54006;DHT22;39919;38.160;-122.260;2022-11-20T06:07:19;11.30;43.20
54006;DHT22;39919;38.160;-122.260;2022-11-20T06:09:47;11.20;43.20
54006;DHT22;39919;38.160;-122.260;2022-11-20T06:12:16;11.10;44.10
54006;DHT22;39919;38.160;-122.260;2022-11-20T06:14:47;11.00;43.90
54006;DHT22;39919;38.160;-122.260;2022-11-20T06:17:15;10.90;45.10
54006;DHT22;39919;38.160;-122.260;2022-11-20T06:19:46;10.80;44.60
54006;DHT22;39919;38.160;-122.260;2022-11-20T06:22:17;10.70;44.50
54006;DHT22;39919;38.160;-122.260;2022-11-20T06:24:47;10.70;45.50
54006;DHT22;39919;38.160;-122.260;2022-11-20T06:27:15;10.60;45.70
54006;DHT22;39919;38.160;-122.260;2022-11-20T06:29:43;10.40;46.30
54006;DHT22;39919;38.160;-122.260;2022-11-20T06:32:11;10.30;45.90
54006;DHT22;39919;38.160;-122.260;2022-11-20T06:34:40;10.30;47.10
54006;DHT22;39919;38.160;-122.260;2022-11-20T06:37:11;10.10;47.30
54006;DHT22;39919;38.160;-122.260;2022-11-20T06:39:42;10.00;46.80
54006;DHT22;39919;38.160;-122.260;2022-11-20T06:42:10;10.00;47.80
54006;DHT22;39919;38.160;-122.260;2022-11-20T06:44:39;9.90;48.20
54006;DHT22;39919;38.160;-122.260;2022-11-20T06:47:08;9.80;47.60
54006;DHT22;39919;38.160;-122.260;2022-11-20T06:49:36;9.70;48.80
54006;DHT22;39919;38.160;-122.260;2022-11-20T06:52:05;9.60;48.70
54006;DHT22;39919;38.160;-122.260;2022-11-20T06:54:35;9.50;49.60
54006;DHT22;39919;38.160;-122.260;2022-11-20T06:57:03;9.50;49.00
54006;DHT22;39919;38.160;-122.260;2022-11-20T06:59:32;9.40;49.00
54006;DHT22;39919;38.160;-122.260;2022-11-20T07:02:01;9.30;50.00
54006;DHT22;39919;38.160;-122.260;2022-11-20T07:04:30;9.20;49.50
54006;DHT22;39919;38.160;-122.260;2022-11-20T07:06:58;9.20;51.10
54006;DHT22;39919;38.160;-122.260;2022-11-20T07:09:27;9.10;50.30
54006;DHT22;39919;38.160;-122.260;2022-11-20T07:11:59;9.10;51.80
54006;DHT22;39919;38.160;-122.260;2022-11-20T07:14:30;9.00;51.20
54006;DHT22;39919;38.160;-122.260;2022-11-20T07:16:59;8.90;52.00
54006;DHT22;39919;38.160;-122.260;2022-11-20T07:19:27;8.80;52.60
54006;DHT22;39919;38.160;-122.260;2022-11-20T07:21:58;8.70;52.00
54006;DHT22;39919;38.160;-122.260;2022-11-20T07:24:27;8.70;52.60
54006;DHT22;39919;38.160;-122.260;2022-11-20T07:26:56;8.60;54.10
54006;DHT22;39919;38.160;-122.260;2022-11-20T07:29:26;8.60;53.50
54006;DHT22;39919;38.160;-122.260;2022-11-20T07:31:55;8.50;53.10
54006;DHT22;39919;38.160;-122.260;2022-11-20T07:34:23;8.50;53.90
54006;DHT22;39919;38.160;-122.260;2022-11-20T07:36:51;8.40;53.80
54006;DHT22;39919;38.160;-122.260;2022-11-20T07:39:20;8.30;54.20
54006;DHT22;39919;38.160;-122.260;2022-11-20T07:41:48;8.30;54.30
54006;DHT22;39919;38.160;-122.260;2022-11-20T07:44:16;8.20;54.70
54006;DHT22;39919;38.160;-122.260;2022-11-20T07:46:46;8.20;55.40
54006;DHT22;39919;38.160;-122.260;2022-11-20T07:49:17;8.10;55.40
54006;DHT22;39919;38.160;-122.260;2022-11-20T07:51:45;8.10;54.80
54006;DHT22;39919;38.160;-122.260;2022-11-20T07:54:14;8.00;54.20
54006;DHT22;39919;38.160;-122.260;2022-11-20T07:56:43;8.00;54.40
54006;DHT22;39919;38.160;-122.260;2022-11-20T07:59:12;7.90;54.00
54006;DHT22;39919;38.160;-122.260;2022-11-20T08:01:41;7.90;54.20
54006;DHT22;39919;38.160;-122.260;2022-11-20T08:04:12;7.90;54.00
54006;DHT22;39919;38.160;-122.260;2022-11-20T08:06:42;7.80;54.00
54006;DHT22;39919;38.160;-122.260;2022-11-20T08:09:11;7.80;53.80
54006;DHT22;39919;38.160;-122.260;2022-11-20T08:11:39;7.70;53.50
54006;DHT22;39919;38.160;-122.260;2022-11-20T08:14:24;7.70;53.90
54006;DHT22;39919;38.160;-122.260;2022-11-20T08:16:53;7.70;54.30
54006;DHT22;39919;38.160;-122.260;2022-11-20T08:19:24;7.60;53.70
54006;DHT22;39919;38.160;-122.260;2022-11-20T08:21:52;7.60;53.80
54006;DHT22;39919;38.160;-122.260;2022-11-20T08:24:20;7.60;53.70
54006;DHT22;39919;38.160;-122.260;2022-11-20T08:26:49;7.50;54.00
54006;DHT22;39919;38.160;-122.260;2022-11-20T08:29:17;7.50;53.90
54006;DHT22;39919;38.160;-122.260;2022-11-20T08:31:45;7.50;53.90
54006;DHT22;39919;38.160;-122.260;2022-11-20T08:34:13;7.40;53.60
54006;DHT22;39919;38.160;-122.260;2022-11-20T08:36:44;7.40;53.90
54006;DHT22;39919;38.160;-122.260;2022-11-20T08:39:13;7.30;53.80
54006;DHT22;39919;38.160;-122.260;2022-11-20T08:41:41;7.30;54.20
54006;DHT22;39919;38.160;-122.260;2022-11-20T08:44:10;7.30;53.80
54006;DHT22;39919;38.160;-122.260;2022-11-20T08:46:55;7.20;54.00
54006;DHT22;39919;38.160;-122.260;2022-11-20T08:49:23;7.20;53.80
54006;DHT22;39919;38.160;-122.260;2022-11-20T08:51:53;7.20;53.90
54006;DHT22;39919;38.160;-122.260;2022-11-20T08:54:22;7.10;53.60
54006;DHT22;39919;38.160;-122.260;2022-11-20T08:56:51;7.10;53.90
54006;DHT22;39919;38.160;-122.260;2022-11-20T08:59:20;7.10;53.60
54006;DHT22;39919;38.160;-122.260;2022-11-20T09:01:48;7.10;54.60
54006;DHT22;39919;38.160;-122.260;2022-11-20T09:04:16;7.10;54.30
54006;DHT22;39919;38.160;-122.260;2022-11-20T09:06:44;7.00;54.20
54006;DHT22;39919;38.160;-122.260;2022-11-20T09:09:18;7.00;54.20
54006;DHT22;39919;38.160;-122.260;2022-11-20T09:11:47;7.00;56.20
54006;DHT22;39919;38.160;-122.260;2022-11-20T09:14:15;7.00;56.10
54006;DHT22;39919;38.160;-122.260;2022-11-20T09:16:44;6.90;56.20
54006;DHT22;39919;38.160;-122.260;2022-11-20T09:19:13;6.90;57.30
54006;DHT22;39919;38.160;-122.260;2022-11-20T09:21:41;6.90;57.00
54006;DHT22;39919;38.160;-122.260;2022-11-20T09:24:10;6.80;56.50
54006;DHT22;39919;38.160;-122.260;2022-11-20T09:26:41;6.90;57.90
54006;DHT22;39919;38.160;-122.260;2022-11-20T09:29:09;6.80;57.30
54006;DHT22;39919;38.160;-122.260;2022-11-20T09:31:37;6.80;57.50
54006;DHT22;39919;38.160;-122.260;2022-11-20T09:34:05;6.80;58.00
54006;DHT22;39919;38.160;-122.260;2022-11-20T09:36:34;6.80;57.70
54006;DHT22;39919;38.160;-122.260;2022-11-20T09:39:02;6.70;57.30
54006;DHT22;39919;38.160;-122.260;2022-11-20T09:44:23;6.60;56.90
54006;DHT22;39919;38.160;-122.260;2022-11-20T09:46:54;6.60;56.90
54006;DHT22;39919;38.160;-122.260;2022-11-20T09:49:27;6.60;57.00
54006;DHT22;39919;38.160;-122.260;2022-11-20T09:52:09;6.60;57.30
54006;DHT22;39919;38.160;-122.260;2022-11-20T09:54:41;6.50;56.70
54006;DHT22;39919;38.160;-122.260;2022-11-20T09:57:10;6.50;57.00
54006;DHT22;39919;38.160;-122.260;2022-11-20T09:59:41;6.50;56.60
54006;DHT22;39919;38.160;-122.260;2022-11-20T10:02:15;6.50;57.40
54006;DHT22;39919;38.160;-122.260;2022-11-20T10:04:44;6.40;56.90
54006;DHT22;39919;38.160;-122.260;2022-11-20T10:07:15;6.40;57.10
54006;DHT22;39919;38.160;-122.260;2022-11-20T10:09:48;6.30;56.70
54006;DHT22;39919;38.160;-122.260;2022-11-20T10:12:18;6.30;57.40
54006;DHT22;39919;38.160;-122.260;2022-11-20T10:14:54;6.30;57.10
54006;DHT22;39919;38.160;-122.260;2022-11-20T10:17:27;6.20;56.80
54006;DHT22;39919;38.160;-122.260;2022-11-20T10:20:07;6.10;56.70
54006;DHT22;39919;38.160;-122.260;2022-11-20T10:22:42;6.20;57.20
54006;DHT22;39919;38.160;-122.260;2022-11-20T10:25:15;6.10;57.80
54006;DHT22;39919;38.160;-122.260;2022-11-20T10:30:29;6.10;58.40
54006;DHT22;39919;38.160;-122.260;2022-11-20T10:33:00;6.00;57.80
54006;DHT22;39919;38.160;-122.260;2022-11-20T10:35:33;6.00;59.00
54006;DHT22;39919;38.160;-122.260;2022-11-20T10:38:03;5.90;58.60
54006;DHT22;39919;38.160;-122.260;2022-11-20T10:40:34;5.90;58.70
54006;DHT22;39919;38.160;-122.260;2022-11-20T10:43:08;5.80;58.20
54006;DHT22;39919;38.160;-122.260;2022-11-20T10:45:46;5.80;59.50
54006;DHT22;39919;38.160;-122.260;2022-11-20T10:48:16;5.80;60.30
54006;DHT22;39919;38.160;-122.260;2022-11-20T10:50:56;5.70;59.90
54006;DHT22;39919;38.160;-122.260;2022-11-20T10:53:33;5.70;59.50
54006;DHT22;39919;38.160;-122.260;2022-11-20T10:56:10;5.60;62.00
54006;DHT22;39919;38.160;-122.260;2022-11-20T10:58:40;5.60;64.00
54006;DHT22;39919;38.160;-122.260;2022-11-20T11:01:15;5.60;65.00
54006;DHT22;39919;38.160;-122.260;2022-11-20T11:03:44;5.50;64.60
54006;DHT22;39919;38.160;-122.260;2022-11-20T11:06:14;5.50;64.00
54006;DHT22;39919;38.160;-122.260;2022-11-20T11:08:45;5.50;64.10
54006;DHT22;39919;38.160;-122.260;2022-11-20T11:11:18;5.50;64.20
54006;DHT22;39919;38.160;-122.260;2022-11-20T11:13:49;5.40;63.90
54006;DHT22;39919;38.160;-122.260;2022-11-20T11:16:24;5.40;64.60
54006;DHT22;39919;38.160;-122.260;2022-11-20T11:19:02;5.40;64.60
54006;DHT22;39919;38.160;-122.260;2022-11-20T11:21:31;5.40;65.10
54006;DHT22;39919;38.160;-122.260;2022-11-20T11:24:00;5.40;64.70
54006;DHT22;39919;38.160;-122.260;2022-11-20T11:26:29;5.40;64.90
54006;DHT22;39919;38.160;-122.260;2022-11-20T11:28:57;5.30;64.90
54006;DHT22;39919;38.160;-122.260;2022-11-20T11:31:28;5.30;64.20
54006;DHT22;39919;38.160;-122.260;2022-11-20T11:34:06;5.30;64.70
54006;DHT22;39919;38.160;-122.260;2022-11-20T11:36:35;5.30;65.60
54006;DHT22;39919;38.160;-122.260;2022-11-20T11:39:04;5.30;66.50
54006;DHT22;39919;38.160;-122.260;2022-11-20T11:41:33;5.30;66.30
54006;DHT22;39919;38.160;-122.260;2022-11-20T11:44:12;5.30;66.90
54006;DHT22;39919;38.160;-122.260;2022-11-20T11:47:02;5.20;67.00
54006;DHT22;39919;38.160;-122.260;2022-11-20T11:49:32;5.20;66.60
54006;DHT22;39919;38.160;-122.260;2022-11-20T11:52:02;5.20;66.70
54006;DHT22;39919;38.160;-122.260;2022-11-20T11:54:34;5.20;67.30
54006;DHT22;39919;38.160;-122.260;2022-11-20T11:57:05;5.20;67.50
54006;DHT22;39919;38.160;-122.260;2022-11-20T11:59:41;5.20;68.20
54006;DHT22;39919;38.160;-122.260;2022-11-20T12:02:15;5.10;68.80
54006;DHT22;39919;38.160;-122.260;2022-11-20T12:04:44;5.10;68.70
54006;DHT22;39919;38.160;-122.260;2022-11-20T12:07:15;5.10;68.30
54006;DHT22;39919;38.160;-122.260;2022-11-20T12:09:48;5.10;69.40
54006;DHT22;39919;38.160;-122.260;2022-11-20T12:12:17;5.10;68.80
54006;DHT22;39919;38.160;-122.260;2022-11-20T12:14:48;5.10;69.10
54006;DHT22;39919;38.160;-122.260;2022-11-20T12:17:20;5.10;69.10
54006;DHT22;39919;38.160;-122.260;2022-11-20T12:19:50;5.10;69.00
54006;DHT22;39919;38.160;-122.260;2022-11-20T12:22:21;5.10;69.40
54006;DHT22;39919;38.160;-122.260;2022-11-20T12:24:54;5.10;69.70
54006;DHT22;39919;38.160;-122.260;2022-11-20T12:27:32;5.10;69.20
54006;DHT22;39919;38.160;-122.260;2022-11-20T12:30:07;5.00;69.40
54006;DHT22;39919;38.160;-122.260;2022-11-20T12:32:53;5.00;70.00
54006;DHT22;39919;38.160;-122.260;2022-11-20T12:35:29;5.00;69.40
54006;DHT22;39919;38.160;-122.260;2022-11-20T12:38:15;4.90;69.20
54006;DHT22;39919;38.160;-122.260;2022-11-20T12:40:50;5.00;69.50
54006;DHT22;39919;38.160;-122.260;2022-11-20T12:43:22;4.90;69.50
54006;DHT22;39919;38.160;-122.260;2022-11-20T12:46:22;4.80;69.10
54006;DHT22;39919;38.160;-122.260;2022-11-20T12:48:56;4.80;69.60
54006;DHT22;39919;38.160;-122.260;2022-11-20T12:51:36;4.80;69.50
54006;DHT22;39919;38.160;-122.260;2022-11-20T12:54:16;4.80;69.90
54006;DHT22;39919;38.160;-122.260;2022-11-20T12:56:52;4.80;69.70
54006;DHT22;39919;38.160;-122.260;2022-11-20T12:59:31;4.70;70.00
54006;DHT22;39919;38.160;-122.260;2022-11-20T13:02:03;4.70;70.30
54006;DHT22;39919;38.160;-122.260;2022-11-20T13:07:22;4.70;71.10
54006;DHT22;39919;38.160;-122.260;2022-11-20T13:09:52;4.60;70.80
54006;DHT22;39919;38.160;-122.260;2022-11-20T13:12:23;4.60;70.90
54006;DHT22;39919;38.160;-122.260;2022-11-20T13:14:53;4.50;71.20
54006;DHT22;39919;38.160;-122.260;2022-11-20T13:17:23;4.60;71.40
54006;DHT22;39919;38.160;-122.260;2022-11-20T13:19:53;4.50;71.10
54006;DHT22;39919;38.160;-122.260;2022-11-20T13:22:27;4.40;71.80
54006;DHT22;39919;38.160;-122.260;2022-11-20T13:24:56;4.50;72.00
54006;DHT22;39919;38.160;-122.260;2022-11-20T13:27:24;4.40;71.90
54006;DHT22;39919;38.160;-122.260;2022-11-20T13:29:59;4.40;72.20
54006;DHT22;39919;38.160;-122.260;2022-11-20T13:32:28;4.30;72.00
54006;DHT22;39919;38.160;-122.260;2022-11-20T13:34:58;4.30;72.40
54006;DHT22;39919;38.160;-122.260;2022-11-20T13:37:30;4.30;71.70
54006;DHT22;39919;38.160;-122.260;2022-11-20T13:40:11;4.30;73.00
54006;DHT22;39919;38.160;-122.260;2022-11-20T13:42:40;4.20;73.50
54006;DHT22;39919;38.160;-122.260;2022-11-20T13:45:21;4.20;73.70
54006;DHT22;39919;38.160;-122.260;2022-11-20T13:47:50;4.20;74.60
54006;DHT22;39919;38.160;-122.260;2022-11-20T13:50:19;4.20;74.30
54006;DHT22;39919;38.160;-122.260;2022-11-20T13:52:52;4.20;74.50
54006;DHT22;39919;38.160;-122.260;2022-11-20T13:55:23;4.10;74.50
54006;DHT22;39919;38.160;-122.260;2022-11-20T13:57:57;4.10;74.20
54006;DHT22;39919;38.160;-122.260;2022-11-20T14:00:27;4.10;74.00
54006;DHT22;39919;38.160;-122.260;2022-11-20T14:03:00;4.10;74.40
54006;DHT22;39919;38.160;-122.260;2022-11-20T14:05:31;4.10;73.50
54006;DHT22;39919;38.160;-122.260;2022-11-20T14:08:04;4.10;74.00
54006;DHT22;39919;38.160;-122.260;2022-11-20T14:10:33;4.00;74.50
54006;DHT22;39919;38.160;-122.260;2022-11-20T14:13:15;4.00;73.30
54006;DHT22;39919;38.160;-122.260;2022-11-20T14:15:45;4.00;73.80
54006;DHT22;39919;38.160;-122.260;2022-11-20T14:18:14;3.90;73.80
54006;DHT22;39919;38.160;-122.260;2022-11-20T14:20:43;3.90;74.10
54006;DHT22;39919;38.160;-122.260;2022-11-20T14:23:22;3.90;73.40
54006;DHT22;39919;38.160;-122.260;2022-11-20T14:25:51;3.90;73.60
54006;DHT22;39919;38.160;-122.260;2022-11-20T14:28:21;3.90;74.50
54006;DHT22;39919;38.160;-122.260;2022-11-20T14:30:52;3.80;74.70
54006;DHT22;39919;38.160;-122.260;2022-11-20T14:33:20;3.80;75.30
54006;DHT22;39919;38.160;-122.260;2022-11-20T14:35:51;3.80;75.10
54006;DHT22;39919;38.160;-122.260;2022-11-20T14:38:22;3.70;75.00
54006;DHT22;39919;38.160;-122.260;2022-11-20T14:40:52;3.70;75.20
54006;DHT22;39919;38.160;-122.260;2022-11-20T14:43:22;3.70;75.00
54006;DHT22;39919;38.160;-122.260;2022-11-20T14:45:54;3.70;75.60
54006;DHT22;39919;38.160;-122.260;2022-11-20T14:48:25;3.70;76.00
54006;DHT22;39919;38.160;-122.260;2022-11-20T14:50:55;3.60;75.40
54006;DHT22;39919;38.160;-122.260;2022-11-20T14:53:26;3.60;76.10
54006;DHT22;39919;38.160;-122.260;2022-11-20T14:55:56;3.60;76.10
54006;DHT22;39919;38.160;-122.260;2022-11-20T14:58:25;3.60;76.30
54006;DHT22;39919;38.160;-122.260;2022-11-20T15:00:54;3.60;76.70
54006;DHT22;39919;38.160;-122.260;2022-11-20T15:03:30;3.60;76.80
54006;DHT22;39919;38.160;-122.260;2022-11-20T15:05:58;3.60;76.70
54006;DHT22;39919;38.160;-122.260;2022-11-20T15:08:28;3.50;76.60
54006;DHT22;39919;38.160;-122.260;2022-11-20T15:13:39;3.60;76.80
54006;DHT22;39919;38.160;-122.260;2022-11-20T15:16:13;3.60;77.20
54006;DHT22;39919;38.160;-122.260;2022-11-20T15:18:44;3.60;77.80
54006;DHT22;39919;38.160;-122.260;2022-11-20T15:21:12;3.60;78.30
54006;DHT22;39919;38.160;-122.260;2022-11-20T15:23:45;3.60;77.90
54006;DHT22;39919;38.160;-122.260;2022-11-20T15:26:13;3.60;77.70
54006;DHT22;39919;38.160;-122.260;2022-11-20T15:28:42;3.60;78.00
54006;DHT22;39919;38.160;-122.260;2022-11-20T15:31:13;3.60;77.70
54006;DHT22;39919;38.160;-122.260;2022-11-20T15:33:55;3.60;77.60
54006;DHT22;39919;38.160;-122.260;2022-11-20T15:36:24;3.70;79.10
54006;DHT22;39919;38.160;-122.260;2022-11-20T15:38:53;3.70;79.40
54006;DHT22;39919;38.160;-122.260;2022-11-20T15:41:22;3.80;79.60
54006;DHT22;39919;38.160;-122.260;2022-11-20T15:43:50;3.80;79.20
54006;DHT22;39919;38.160;-122.260;2022-11-20T15:46:19;3.80;79.60
54006;DHT22;39919;38.160;-122.260;2022-11-20T15:48:51;3.90;79.90
54006;DHT22;39919;38.160;-122.260;2022-11-20T15:51:21;3.90;80.30
54006;DHT22;39919;38.160;-122.260;2022-11-20T15:53:54;4.00;79.80
54006;DHT22;39919;38.160;-122.260;2022-11-20T15:56:22;4.10;80.40
54006;DHT22;39919;38.160;-122.260;2022-11-20T15:58:50;4.10;80.00
54006;DHT22;39919;38.160;-122.260;2022-11-20T16:01:19;4.20;79.80